Mandal, China
Current Conditions -  °F | °C
As of 10:00 AM on Saturday 29 Nov 2014 (Local Time) from ZBHH Reporting Station
Clear Clear  
Wind Chill: 32°   Ceiling: Unl
Heat Index: 32°   Visibility: 4mi
Dew Point: 25°   Wind: 2mph
Humidity: 75%   Direction: 10°N
Pressure: 29.97"   Gusts: NA
Location:  42.53°N, 110.13°E
Report Text: ZBHH 290200Z 01001MPS 6000 NSC M00/M04 Q1015 NOSIG
Loading
Personal Weather Stations






























Interactive Weather Map New forecast layout! Learn more

10-Day Weather Forecast

Advertisements
Track Severe Weather on mobile